Stamford, NY (12167)

1:34 PM EST on February 14, 2016 (GMT -0500)
APRSWXNET | | Change Station
CLOSE
Current Station
Personal Weather Station
Location: Stamford, NY
Elevation: 1820 ft
Nearby Weather Stations

Elev 1820 ft 42.40 °N, 74.60 °W | Updated 32 minutes ago

Clear
Clear
-2 °F
Feels Like -13 °F
N
5
Wind Variable Wind from NW
Gusts 0.0 mph

Today
High -- | Low -- °F
--% Chance of Precip.
Yesterday
High -- | Low -- °F
Precip. -- in
Pressure 30.53 in
Visibility 10.0 miles
Clouds Clear
Windchill -13 °F
Dew Point -17 °F
Humidity 48%
Rainfall in
Snow Depth Not available.
6:57 AM 5:28 PM
Waxing Crescent, 44% visible
METAR KALB 141751Z 31010KT 10SM CLR M16/M28 A3051 RMK AO2 SLP338 T11611283 11161 21250 56012
Pressure 30.53 in
Visibility 10.0 miles
Clouds Clear
Windchill -13 °F
Dew Point -17 °F
Humidity 48%
Rainfall in
Snow Depth Not available.
6:57 AM 5:28 PM
Waxing Crescent, 44% visible
METAR KALB 141751Z 31010KT 10SM CLR M16/M28 A3051 RMK AO2 SLP338 T11611283 11161 21250 56012

10-Day Weather Forecast

Almanac

Astronomy

Feb. 14, 2016 Rise Set
Actual Time
Civil Twilight
Nautical Twilight
Astronomical Twilight
Moon
Length of Visible Light
Length of Day
Tomorrow will be .
, % of the Moon is Illuminated

Today's Extremes

State Highs State Lows

Community

WunderPhotos

Upload Photos

1,892,868 photos uploaded!

WunderBlog® & News

Nearby

Air Quality

  Air Quality AQ Index Pollutant
Not available.

Snow Depth

Station Depth Elevation

Earthquake Activity

City Distance Mag. Time & Date
Minimum magnitude displayed is 2.5.

Coastal Water Temperatures

Place Temperature

Stations

Nearby Weather Stations

Station Location Temp. Windchill Dew Point Humidity Wind Precip. Elev Updated Type
                   

Watches & Warnings

There are currently no watches in effect.